Time;durP1;ratioP1;P1;durP2;ratioP2;P2;SDS_P1;SDS_P2;PMS_P1;PMS_P2;Temp;Humidity;BMP_temperature;BMP_pressure;BME280_temperature;BME280_humidity;BME280_pressure;Samples;Min_cycle;Max_cycle;Signal;HPM_P1;HPM_P2
2022/05/18 00:00:53;;;;;;;2.30;2.10;;;21.40;55.90;;;;;;4930508;29;20474;-66
2022/05/18 00:03:27;;;;;;;2.17;1.97;;;21.30;54.70;;;;;;4929336;29;20470;-67
2022/05/18 00:06:02;;;;;;;2.97;2.03;;;21.20;54.60;;;;;;4929064;29;20474;-67
2022/05/18 00:08:35;;;;;;;3.63;2.47;;;20.90;56.80;;;;;;4938826;29;20501;-66
2022/05/18 00:11:08;;;;;;;2.37;1.93;;;21.00;57.60;;;;;;4936603;29;20470;-67
2022/05/18 00:13:40;;;;;;;2.27;1.93;;;21.00;55.60;;;;;;4940956;29;20489;-66
2022/05/18 00:16:11;;;;;;;2.87;2.30;;;21.20;55.20;;;;;;4939884;29;20826;-67
2022/05/18 00:18:44;;;;;;;2.17;1.97;;;21.30;57.90;;;;;;4928119;29;20458;-67
2022/05/18 00:21:17;;;;;;;2.67;2.23;;;21.30;55.40;;;;;;4927939;29;20554;-67
2022/05/18 00:23:48;;;;;;;3.60;2.20;;;21.50;56.40;;;;;;4927401;29;20749;-66
2022/05/18 00:26:19;;;;;;;3.00;2.70;;;21.20;54.10;;;;;;4928235;29;20474;-65
2022/05/18 00:28:50;;;;;;;3.67;2.37;;;20.90;56.00;;;;;;4933895;29;20525;-66
2022/05/18 00:31:22;;;;;;;2.67;2.43;;;20.80;57.60;;;;;;4930915;29;20452;-66
2022/05/18 00:33:53;;;;;;;2.73;2.53;;;20.80;57.60;;;;;;4929471;29;20671;-66
2022/05/18 00:36:25;;;;;;;2.50;2.30;;;20.90;57.10;;;;;;4933987;29;20800;-67
2022/05/18 00:38:56;;;;;;;2.60;2.23;;;20.70;58.70;;;;;;4928327;29;20783;-67
2022/05/18 00:41:27;;;;;;;3.03;2.50;;;20.60;59.60;;;;;;4930180;29;20653;-67
2022/05/18 00:43:58;;;;;;;2.80;2.10;;;20.50;58.60;;;;;;4930346;29;20558;-67
2022/05/18 00:46:29;;;;;;;3.13;2.70;;;20.50;56.30;;;;;;4930835;29;20469;-67
2022/05/18 00:49:03;;;;;;;4.23;2.63;;;20.50;57.40;;;;;;4928336;29;20497;-68
2022/05/18 00:51:40;;;;;;;2.30;2.00;;;20.40;60.00;;;;;;4931074;29;20455;-66
2022/05/18 00:54:14;;;;;;;2.83;2.60;;;20.50;56.20;;;;;;4932003;29;21230;-67
2022/05/18 00:56:52;;;;;;;2.70;2.40;;;20.50;56.60;;;;;;4933885;29;20466;-65
2022/05/18 00:59:28;;;;;;;2.73;2.53;;;20.60;58.50;;;;;;4941516;29;20482;-66
2022/05/18 01:02:03;;;;;;;2.40;2.10;;;20.50;58.50;;;;;;4941148;29;20446;-66
2022/05/18 01:04:34;;;;;;;2.93;2.43;;;20.50;56.30;;;;;;4929438;29;20441;-64
2022/05/18 01:07:10;;;;;;;2.30;2.10;;;20.40;57.40;;;;;;4930906;29;20451;-65
2022/05/18 01:09:44;;;;;;;2.47;2.20;;;20.50;57.10;;;;;;4925472;29;20524;-66
2022/05/18 01:12:18;;;;;;;3.20;2.70;;;20.30;57.90;;;;;;4930850;29;20451;-66
2022/05/18 01:14:53;;;;;;;2.93;2.30;;;20.30;56.70;;;;;;4930798;29;20469;-67
2022/05/18 01:17:26;;;;;;;2.27;2.03;;;20.30;57.50;;;;;;4927443;29;20474;-65
2022/05/18 01:19:59;;;;;;;4.10;2.37;;;20.30;56.50;;;;;;4925314;29;20444;-66
2022/05/18 01:22:41;;;;;;;3.20;2.00;;;20.10;58.00;;;;;;4933535;29;20781;-67
2022/05/18 01:25:26;;;;;;;2.37;1.93;;;20.10;58.10;;;;;;4926718;29;20443;-66
2022/05/18 01:28:00;;;;;;;2.40;2.00;;;20.00;60.90;;;;;;4932011;29;20418;-66
2022/05/18 01:30:32;;;;;;;2.63;2.43;;;19.90;61.20;;;;;;4929525;29;21221;-65
2022/05/18 01:33:07;;;;;;;2.67;2.47;;;20.00;58.70;;;;;;4930995;29;20432;-67
2022/05/18 01:35:41;;;;;;;2.47;2.27;;;20.00;59.00;;;;;;4928987;29;20476;-65
2022/05/18 01:38:12;;;;;;;3.93;2.27;;;20.00;58.50;;;;;;4940229;29;20457;-66
2022/05/18 01:40:53;;;;;;;3.10;2.80;;;19.90;57.60;;;;;;4943790;29;20473;-67
2022/05/18 01:43:29;;;;;;;4.00;2.20;;;19.90;58.50;;;;;;4940321;29;20447;-65
2022/05/18 01:46:02;;;;;;;2.80;2.50;;;19.80;59.50;;;;;;4933443;29;20465;-65
2022/05/18 01:48:35;;;;;;;2.27;2.07;;;19.70;60.20;;;;;;4932980;29;20444;-66
2022/05/18 01:51:08;;;;;;;4.33;2.60;;;19.60;57.00;;;;;;4928960;29;20481;-66
2022/05/18 01:53:39;;;;;;;2.97;2.67;;;19.50;56.90;;;;;;4929583;29;20899;-67
2022/05/18 01:56:09;;;;;;;3.83;2.43;;;19.30;59.60;;;;;;4929400;29;20433;-65
2022/05/18 01:58:42;;;;;;;2.43;2.23;;;19.10;61.60;;;;;;4932926;29;20449;-65
2022/05/18 02:01:13;;;;;;;2.43;2.23;;;19.00;64.80;;;;;;4931124;29;20529;-65
2022/05/18 02:03:44;;;;;;;4.03;2.80;;;19.00;66.00;;;;;;4931839;29;20475;-64
2022/05/18 02:06:15;;;;;;;2.83;2.13;;;19.00;63.50;;;;;;4931359;29;20527;-65
2022/05/18 02:08:46;;;;;;;4.67;2.30;;;19.10;59.30;;;;;;4931763;29;20449;-64
2022/05/18 02:11:18;;;;;;;2.90;2.70;;;19.10;59.70;;;;;;4929317;29;20478;-64
2022/05/18 02:13:51;;;;;;;6.57;2.43;;;19.10;61.50;;;;;;4928809;29;20530;-64
2022/05/18 02:16:22;;;;;;;3.27;2.40;;;19.00;61.80;;;;;;4927110;29;20452;-66
2022/05/18 02:18:53;;;;;;;2.40;2.20;;;19.00;61.80;;;;;;4930626;29;20517;-64
2022/05/18 02:21:25;;;;;;;6.40;2.50;;;18.90;61.40;;;;;;4929875;29;20493;-66
2022/05/18 02:23:59;;;;;;;2.67;2.43;;;18.90;64.00;;;;;;4929605;29;21071;-66
2022/05/18 02:26:30;;;;;;;2.57;2.37;;;18.80;66.40;;;;;;4942964;29;20451;-66
2022/05/18 02:29:02;;;;;;;3.00;2.30;;;18.70;65.50;;;;;;4939777;29;20462;-67
2022/05/18 02:31:38;;;;;;;2.90;2.43;;;18.70;61.90;;;;;;4942744;29;20541;-67
2022/05/18 02:34:12;;;;;;;3.53;2.07;;;18.60;61.40;;;;;;4928421;29;20438;-65
2022/05/18 02:36:45;;;;;;;3.40;2.57;;;18.50;60.50;;;;;;4929416;29;20854;-67
2022/05/18 02:39:20;;;;;;;3.60;2.60;;;18.40;64.40;;;;;;4927231;29;20445;-66
2022/05/18 02:41:54;;;;;;;3.97;3.10;;;18.30;66.90;;;;;;4925440;29;20477;-67
2022/05/18 02:44:26;;;;;;;2.53;2.40;;;18.20;62.70;;;;;;4930374;29;20437;-67
2022/05/18 02:46:59;;;;;;;2.90;2.70;;;18.10;62.90;;;;;;4927791;29;20487;-68
2022/05/18 02:49:31;;;;;;;3.43;2.63;;;18.10;63.80;;;;;;4929140;29;20458;-67
2022/05/18 02:52:02;;;;;;;2.80;2.57;;;18.00;68.50;;;;;;4930245;29;20463;-67
2022/05/18 02:57:21;;;;;;;2.80;2.37;;;17.80;83.10;;;;;;4926771;29;21030;-67
2022/05/18 02:59:53;;;;;;;2.60;2.30;;;17.70;82.20;;;;;;4941908;29;20444;-66
2022/05/18 03:02:24;;;;;;;2.40;2.20;;;17.60;86.70;;;;;;4937159;29;20456;-68
2022/05/18 03:04:56;;;;;;;2.50;2.40;;;17.50;74.20;;;;;;4930977;29;21100;-67
2022/05/18 03:07:28;;;;;;;3.23;2.77;;;17.50;76.00;;;;;;4930548;29;20465;-67
2022/05/18 03:10:02;;;;;;;2.70;2.20;;;17.40;78.40;;;;;;4940715;29;20513;-67
2022/05/18 03:12:33;;;;;;;2.60;2.40;;;17.30;78.30;;;;;;4938295;29;20800;-68
2022/05/18 03:15:06;;;;;;;2.90;2.70;;;17.20;80.50;;;;;;4931539;29;20486;-68
2022/05/18 03:17:37;;;;;;;3.10;2.80;;;17.10;80.00;;;;;;4948336;29;20453;-67
2022/05/18 03:23:33;;;;;;;4.10;2.70;;;16.90;81.50;;;;;;4936827;29;20429;-67
2022/05/18 03:25:46;;;;;;;2.93;2.63;;;16.70;81.30;;;;;;4935021;29;20472;-68
2022/05/18 03:28:16;;;;;;;3.00;2.60;;;16.60;80.30;;;;;;4940358;29;20814;-68
2022/05/18 03:30:49;;;;;;;2.83;2.47;;;16.50;82.20;;;;;;4935916;29;20497;-67
2022/05/18 03:33:20;;;;;;;3.20;2.97;;;16.40;82.70;;;;;;4936354;29;20449;-67
2022/05/18 03:35:50;;;;;;;2.63;2.43;;;16.40;84.00;;;;;;4946490;29;20461;-67
2022/05/18 03:38:23;;;;;;;3.67;3.17;;;16.30;85.10;;;;;;4945023;29;21258;-68
2022/05/18 03:40:54;;;;;;;3.67;2.87;;;16.20;86.80;;;;;;4937713;29;20470;-68
2022/05/18 03:43:26;;;;;;;3.87;2.90;;;16.20;86.60;;;;;;4942908;29;20488;-68
2022/05/18 03:45:58;;;;;;;3.10;2.80;;;16.20;88.00;;;;;;4947342;29;20465;-68
2022/05/18 03:48:30;;;;;;;2.93;2.73;;;16.10;89.00;;;;;;4940705;29;20525;-67
2022/05/18 03:51:02;;;;;;;3.33;3.00;;;15.90;90.50;;;;;;4940658;29;20491;-66
2022/05/18 03:53:33;;;;;;;3.53;2.43;;;15.80;91.00;;;;;;4935658;29;20949;-66
2022/05/18 03:56:04;;;;;;;2.93;2.60;;;15.70;92.10;;;;;;4928892;29;20474;-66
2022/05/18 03:58:35;;;;;;;4.20;3.20;;;15.60;92.00;;;;;;4933729;29;20470;-67
2022/05/18 04:01:09;;;;;;;3.33;3.00;;;15.70;92.60;;;;;;4932911;29;20470;-65
2022/05/18 04:03:42;;;;;;;4.03;2.90;;;15.60;93.40;;;;;;4928315;29;20511;-64
2022/05/18 04:06:13;;;;;;;3.30;3.00;;;15.60;93.90;;;;;;4928762;29;20927;-66
2022/05/18 04:08:44;;;;;;;5.57;2.93;;;15.50;94.60;;;;;;4936796;29;20465;-66
2022/05/18 04:11:15;;;;;;;4.97;3.10;;;15.50;95.90;;;;;;4934565;29;20509;-67
2022/05/18 04:13:46;;;;;;;3.57;3.27;;;15.40;96.00;;;;;;4942902;29;20517;-67
2022/05/18 04:16:19;;;;;;;3.90;3.07;;;15.40;97.40;;;;;;4940144;29;20472;-67
2022/05/18 04:18:50;;;;;;;4.40;3.67;;;15.30;96.90;;;;;;4936019;29;20459;-67
2022/05/18 04:21:20;;;;;;;3.93;3.27;;;15.40;97.90;;;;;;4942981;29;20474;-67
2022/05/18 04:23:51;;;;;;;3.83;3.50;;;15.30;97.30;;;;;;4943250;29;20477;-67
2022/05/18 04:26:23;;;;;;;4.90;3.63;;;15.30;97.50;;;;;;4940191;29;20472;-68
2022/05/18 04:28:54;;;;;;;3.60;2.60;;;15.20;98.00;;;;;;4941956;29;20470;-67
2022/05/18 04:31:26;;;;;;;4.57;4.17;;;15.10;98.70;;;;;;4931142;29;21385;-67
2022/05/18 04:33:57;;;;;;;4.60;3.63;;;15.00;99.00;;;;;;4939785;29;20470;-67
2022/05/18 04:36:28;;;;;;;3.43;3.13;;;14.90;98.30;;;;;;4944990;29;20500;-67
2022/05/18 04:38:58;;;;;;;5.70;3.40;;;14.90;98.50;;;;;;4932587;29;20470;-68
2022/05/18 04:41:30;;;;;;;4.27;3.10;;;14.80;98.70;;;;;;4929373;29;20469;-67
2022/05/18 04:44:00;;;;;;;3.17;2.90;;;14.80;98.30;;;;;;4943280;29;20480;-68
2022/05/18 04:46:33;;;;;;;4.27;3.10;;;14.70;99.40;;;;;;4945307;29;20458;-68
2022/05/18 04:49:04;;;;;;;4.10;3.70;;;14.60;99.70;;;;;;4943671;29;20470;-68
2022/05/18 04:51:35;;;;;;;3.83;3.10;;;14.60;99.10;;;;;;4942237;29;20509;-67
2022/05/18 04:54:06;;;;;;;3.97;3.57;;;14.50;99.90;;;;;;4931001;29;20482;-68
2022/05/18 04:56:36;;;;;;;3.67;3.17;;;14.50;99.90;;;;;;4946026;29;20462;-68
2022/05/18 04:59:07;;;;;;;3.77;2.97;;;14.50;99.90;;;;;;4944494;29;20488;-67
2022/05/18 05:01:40;;;;;;;3.57;3.27;;;14.50;99.90;;;;;;4937696;29;20478;-67
2022/05/18 05:04:13;;;;;;;5.37;3.70;;;14.40;99.90;;;;;;4941226;29;20469;-67
2022/05/18 05:06:44;;;;;;;4.17;3.00;;;14.50;99.90;;;;;;4930384;29;20458;-67
2022/05/18 05:09:15;;;;;;;3.03;2.67;;;14.50;99.90;;;;;;4926181;29;20462;-67
2022/05/18 05:11:46;;;;;;;4.60;3.33;;;14.50;99.90;;;;;;4941501;29;20502;-68
2022/05/18 05:14:17;;;;;;;4.90;3.77;;;14.50;99.90;;;;;;4931041;29;20494;-67
2022/05/18 05:16:49;;;;;;;4.27;3.77;;;14.50;99.90;;;;;;4940462;29;20458;-67
2022/05/18 05:19:20;;;;;;;4.70;3.60;;;14.50;99.90;;;;;;4932080;29;20462;-68
2022/05/18 05:21:51;;;;;;;6.37;3.57;;;14.50;99.90;;;;;;4942064;29;20459;-67
2022/05/18 05:24:22;;;;;;;3.47;3.17;;;14.50;99.90;;;;;;4935394;29;20474;-68
2022/05/18 05:26:53;;;;;;;5.47;4.57;;;14.50;99.90;;;;;;4937692;29;20461;-68
2022/05/18 05:29:23;;;;;;;4.83;4.20;;;14.40;99.90;;;;;;4942677;29;20442;-68
2022/05/18 05:31:56;;;;;;;6.03;3.90;;;14.30;99.90;;;;;;4933566;29;20478;-67
2022/05/18 05:34:27;;;;;;;4.10;3.10;;;14.30;99.90;;;;;;4934037;29;20494;-68
2022/05/18 05:36:57;;;;;;;4.33;3.37;;;14.20;99.90;;;;;;4934727;29;20469;-68
2022/05/18 05:39:28;;;;;;;3.40;3.10;;;14.30;99.90;;;;;;4932667;29;20470;-68
2022/05/18 05:42:00;;;;;;;5.03;3.87;;;14.20;99.90;;;;;;4941838;29;20482;-68
2022/05/18 05:44:31;;;;;;;8.73;3.43;;;14.10;99.90;;;;;;4931627;29;20553;-68
2022/05/18 05:47:05;;;;;;;3.70;3.30;;;14.00;99.90;;;;;;4941482;29;20473;-67
2022/05/18 05:49:37;;;;;;;9.83;3.97;;;14.00;99.90;;;;;;4939186;29;20569;-67
2022/05/18 05:52:09;;;;;;;4.83;3.37;;;13.90;99.90;;;;;;4942726;29;20520;-67
2022/05/18 05:54:40;;;;;;;5.10;3.97;;;13.80;99.90;;;;;;4934827;29;20473;-66
2022/05/18 05:57:11;;;;;;;6.00;3.37;;;13.80;99.90;;;;;;4937365;29;20485;-67
2022/05/18 05:59:42;;;;;;;5.40;3.87;;;13.70;99.90;;;;;;4941997;29;20459;-67
2022/05/18 06:02:15;;;;;;;3.83;3.53;;;13.60;99.90;;;;;;4940159;29;20457;-68
2022/05/18 06:04:48;;;;;;;5.30;4.03;;;13.50;99.90;;;;;;4932620;29;20668;-66
2022/05/18 06:07:19;;;;;;;3.90;3.60;;;13.40;99.90;;;;;;4941522;29;20544;-66
2022/05/18 06:09:50;;;;;;;6.07;3.43;;;13.40;99.90;;;;;;4938571;29;20473;-67
2022/05/18 06:12:22;;;;;;;5.30;3.70;;;13.40;99.90;;;;;;4937100;29;20525;-68
2022/05/18 06:14:53;;;;;;;5.40;3.33;;;13.40;99.90;;;;;;4933646;29;20505;-68
2022/05/18 06:17:25;;;;;;;5.63;3.80;;;13.30;99.90;;;;;;4940901;29;20486;-67
2022/05/18 06:19:56;;;;;;;7.10;3.70;;;13.20;99.90;;;;;;4937660;29;20546;-67
2022/05/18 06:22:27;;;;;;;5.37;3.60;;;13.20;99.90;;;;;;4935862;29;20461;-67
2022/05/18 06:24:58;;;;;;;7.60;4.00;;;13.10;99.90;;;;;;4942392;29;20975;-67
2022/05/18 06:27:29;;;;;;;7.13;4.07;;;13.10;99.90;;;;;;4938978;29;20809;-66
2022/05/18 06:30:00;;;;;;;6.60;3.90;;;13.20;99.90;;;;;;4938352;29;20458;-68
2022/05/18 06:32:33;;;;;;;5.60;3.97;;;13.20;99.90;;;;;;4933762;29;20509;-67
2022/05/18 06:35:04;;;;;;;5.90;3.57;;;13.10;99.90;;;;;;4938262;29;20487;-67
2022/05/18 06:37:35;;;;;;;3.63;3.33;;;13.00;99.90;;;;;;4940779;29;20466;-67
2022/05/18 06:40:07;;;;;;;3.90;3.37;;;13.00;99.90;;;;;;4941051;29;20469;-67
2022/05/18 06:42:39;;;;;;;3.60;3.40;;;12.90;99.90;;;;;;4942583;29;20571;-67
2022/05/18 06:45:11;;;;;;;5.00;3.30;;;12.90;99.90;;;;;;4942888;29;20481;-67
2022/05/18 06:47:43;;;;;;;3.67;3.37;;;12.80;99.90;;;;;;4944384;29;20466;-67
2022/05/18 06:50:14;;;;;;;4.60;4.20;;;12.80;99.90;;;;;;4942253;29;20470;-67
2022/05/18 06:52:45;;;;;;;5.30;3.90;;;12.90;99.90;;;;;;4943492;29;20524;-67
2022/05/18 06:55:16;;;;;;;5.63;3.57;;;12.90;99.90;;;;;;4929651;29;20474;-67
2022/05/18 06:57:47;;;;;;;7.10;3.83;;;12.80;99.90;;;;;;4935637;29;20597;-67
2022/05/18 07:00:23;;;;;;;5.00;3.50;;;12.80;99.90;;;;;;4942221;29;20471;-67
2022/05/18 07:02:56;;;;;;;4.33;3.17;;;12.80;99.90;;;;;;4932079;29;20477;-67
2022/05/18 07:05:27;;;;;;;5.00;4.07;;;12.70;99.90;;;;;;4934596;29;20469;-67
2022/05/18 07:07:58;;;;;;;4.47;3.20;;;12.80;99.90;;;;;;4940940;29;20495;-67
2022/05/18 07:10:29;;;;;;;3.63;3.20;;;12.80;99.90;;;;;;4928566;29;20477;-67
2022/05/18 07:12:59;;;;;;;4.40;3.77;;;12.70;99.90;;;;;;4931288;29;20606;-67
2022/05/18 07:15:30;;;;;;;5.10;3.80;;;12.70;99.90;;;;;;4934602;29;20976;-67
2022/05/18 07:18:03;;;;;;;4.90;3.77;;;12.70;99.90;;;;;;4938349;29;20481;-67
2022/05/18 07:20:33;;;;;;;4.30;3.73;;;12.70;99.90;;;;;;4935991;29;20783;-67
2022/05/18 07:23:04;;;;;;;6.30;3.30;;;12.70;99.90;;;;;;4940732;29;20476;-67
2022/05/18 07:25:35;;;;;;;6.47;3.80;;;12.70;99.90;;;;;;4927350;29;20467;-68
2022/05/18 07:28:06;;;;;;;5.70;4.30;;;12.60;99.90;;;;;;4931672;29;20498;-67
2022/05/18 07:30:53;;;;;;;5.60;3.90;;;12.60;99.90;;;;;;4942831;29;20465;-67
2022/05/18 07:33:27;;;;;;;3.50;3.20;;;12.60;99.90;;;;;;4942362;29;20603;-68
2022/05/18 07:35:59;;;;;;;5.20;3.53;;;12.50;99.90;;;;;;4942091;29;20528;-67
2022/05/18 07:38:31;;;;;;;4.80;3.70;;;12.50;99.90;;;;;;4926395;29;20574;-66
2022/05/18 07:41:09;;;;;;;5.73;3.33;;;12.40;99.90;;;;;;4930393;29;20634;-67
2022/05/18 07:43:40;;;;;;;4.50;3.80;;;12.50;99.90;;;;;;4930059;29;20470;-68
2022/05/18 07:46:12;;;;;;;4.47;3.80;;;12.40;99.90;;;;;;4943219;29;20462;-67
2022/05/18 07:48:45;;;;;;;3.77;3.47;;;12.40;99.90;;;;;;4945601;29;20470;-68
2022/05/18 07:51:16;;;;;;;6.73;3.80;;;12.40;99.90;;;;;;4947037;29;20477;-68
2022/05/18 07:53:46;;;;;;;3.90;3.50;;;12.40;99.90;;;;;;4938959;29;20592;-67
2022/05/18 07:56:17;;;;;;;5.57;3.60;;;12.30;99.90;;;;;;4947023;29;20481;-67
2022/05/18 07:58:48;;;;;;;8.87;4.30;;;12.40;99.90;;;;;;4944197;29;20487;-68
2022/05/18 08:01:19;;;;;;;7.50;3.67;;;12.40;99.90;;;;;;4947008;29;20470;-67
2022/05/18 08:03:51;;;;;;;5.50;3.23;;;12.40;99.90;;;;;;4943395;29;20465;-67
2022/05/18 08:06:22;;;;;;;5.60;3.70;;;12.40;99.90;;;;;;4937363;29;20611;-68
2022/05/18 08:08:54;;;;;;;5.93;3.87;;;12.50;99.90;;;;;;4936968;29;20604;-68
2022/05/18 08:16:59;;;;;;;4.17;3.70;;;12.60;99.90;;;;;;4938559;29;20532;-68
2022/05/18 08:19:32;;;;;;;4.93;3.50;;;12.60;99.90;;;;;;4942558;29;21141;-68
2022/05/18 08:22:03;;;;;;;7.83;3.90;;;12.50;99.90;;;;;;4946738;29;20952;-68
2022/05/18 08:24:36;;;;;;;10.30;3.90;;;12.50;99.90;;;;;;4942947;29;20478;-67
2022/05/18 08:27:08;;;;;;;5.63;3.60;;;12.40;99.90;;;;;;4939356;29;20474;-68
2022/05/18 08:29:38;;;;;;;5.13;3.67;;;12.40;99.90;;;;;;4946031;29;20496;-68
2022/05/18 08:32:09;;;;;;;4.43;4.00;;;12.40;99.90;;;;;;4939115;29;20474;-68
2022/05/18 08:34:42;;;;;;;5.70;4.10;;;12.40;99.90;;;;;;4944534;29;20493;-68
2022/05/18 08:37:13;;;;;;;4.93;3.87;;;12.50;99.90;;;;;;4945220;29;20476;-68
2022/05/18 08:39:43;;;;;;;6.87;4.03;;;12.50;99.90;;;;;;4943133;29;20473;-68
2022/05/18 08:42:18;;;;;;;5.10;3.60;;;12.50;99.90;;;;;;4933470;29;20470;-68
2022/05/18 08:44:50;;;;;;;4.70;3.63;;;12.50;99.90;;;;;;4934511;29;20577;-68
2022/05/18 08:47:27;;;;;;;4.90;4.33;;;12.50;99.90;;;;;;4945950;29;20473;-68
2022/05/18 08:50:02;;;;;;;6.60;3.70;;;12.70;99.90;;;;;;4941540;29;20453;-68
2022/05/18 08:52:42;;;;;;;6.27;4.27;;;12.80;99.90;;;;;;4939974;29;20473;-68
2022/05/18 08:55:39;;;;;;;5.30;4.10;;;12.80;99.90;;;;;;4938529;29;20469;-68
2022/05/18 08:58:17;;;;;;;4.50;4.10;;;12.90;99.90;;;;;;4935452;29;20462;-68
2022/05/18 09:00:55;;;;;;;5.00;3.77;;;12.80;99.90;;;;;;4943414;29;20957;-68
2022/05/18 09:03:34;;;;;;;4.13;3.80;;;12.80;99.90;;;;;;4942338;29;20469;-67
2022/05/18 09:06:14;;;;;;;5.17;3.90;;;12.90;99.90;;;;;;4941328;29;20548;-69
2022/05/18 09:10:12;;;;;;;7.90;4.37;;;12.90;99.90;;;;;;4930797;29;20477;-68
2022/05/18 09:11:44;;;;;;;8.30;4.00;;;12.90;99.90;;;;;;4933699;29;20462;-68
2022/05/18 09:14:17;;;;;;;6.50;4.40;;;12.90;99.90;;;;;;4943480;29;20520;-68
2022/05/18 09:16:56;;;;;;;5.20;3.90;;;12.90;99.90;;;;;;4941935;29;20533;-67
2022/05/18 09:19:39;;;;;;;4.77;4.23;;;12.90;99.90;;;;;;4944510;29;20525;-68
2022/05/18 09:22:25;;;;;;;5.93;3.77;;;12.90;99.90;;;;;;4942608;29;20832;-68
2022/05/18 09:25:06;;;;;;;4.23;3.83;;;12.80;99.90;;;;;;4932545;29;20494;-67
2022/05/18 09:27:53;;;;;;;5.10;3.83;;;12.80;99.90;;;;;;4936373;29;20470;-67
2022/05/18 09:30:30;;;;;;;5.00;3.40;;;12.80;99.90;;;;;;4933761;29;20469;-67
2022/05/18 09:33:32;;;;;;;7.30;3.70;;;12.70;99.90;;;;;;4934146;29;20497;-67
2022/05/18 09:36:24;;;;;;;6.60;3.53;;;12.70;99.90;;;;;;4935721;29;20458;-67
2022/05/18 09:39:04;;;;;;;4.13;3.53;;;12.60;99.90;;;;;;4928925;29;20510;-67
2022/05/18 09:41:41;;;;;;;3.70;3.40;;;12.60;99.90;;;;;;4936059;29;20465;-69
2022/05/18 09:44:20;;;;;;;6.93;3.73;;;12.60;99.90;;;;;;4936015;29;20488;-68
2022/05/18 09:46:52;;;;;;;6.13;3.10;;;12.60;99.90;;;;;;4943513;29;20548;-69
2022/05/18 09:49:30;;;;;;;5.23;3.90;;;12.60;99.90;;;;;;4933747;29;20486;-68
2022/05/18 09:52:03;;;;;;;4.77;2.90;;;12.60;99.90;;;;;;4937059;29;20476;-67
2022/05/18 09:54:38;;;;;;;3.60;2.70;;;12.60;99.90;;;;;;4931547;29;20498;-67
2022/05/18 09:57:15;;;;;;;3.07;2.77;;;12.60;99.90;;;;;;4934714;29;20846;-68
2022/05/18 09:59:49;;;;;;;4.80;3.30;;;12.60;99.90;;;;;;4943728;29;20484;-67
2022/05/18 10:08:00;;;;;;;3.03;2.30;;;12.60;99.90;;;;;;4941256;29;20470;-67
2022/05/18 10:10:38;;;;;;;2.53;2.33;;;12.50;99.90;;;;;;4940503;29;20550;-67
2022/05/18 10:13:11;;;;;;;2.80;2.33;;;12.60;99.90;;;;;;4942864;29;20967;-68
2022/05/18 10:16:14;;;;;;;2.70;2.50;;;12.50;99.90;;;;;;4943411;29;20774;-68
2022/05/18 10:18:48;;;;;;;3.80;2.43;;;12.50;99.90;;;;;;4939540;29;20462;-67
2022/05/18 10:21:27;;;;;;;4.63;2.50;;;12.50;99.90;;;;;;4940425;29;20509;-67
2022/05/18 10:24:03;;;;;;;3.03;2.57;;;12.50;99.90;;;;;;4940712;29;20457;-68
2022/05/18 10:26:39;;;;;;;5.60;2.90;;;12.50;99.90;;;;;;4941330;29;20935;-66
2022/05/18 10:29:27;;;;;;;2.80;2.40;;;12.50;99.90;;;;;;4940226;29;20465;-68
2022/05/18 10:32:07;;;;;;;2.73;2.50;;;12.50;99.90;;;;;;4944055;29;20564;-68
2022/05/18 10:34:44;;;;;;;3.00;2.13;;;12.40;99.90;;;;;;4937826;29;20511;-67
2022/05/18 10:37:26;;;;;;;2.83;2.50;;;12.40;99.90;;;;;;4943202;29;20473;-68
2022/05/18 10:40:02;;;;;;;4.20;2.80;;;12.30;99.90;;;;;;4932250;29;20454;-68
2022/05/18 10:42:47;;;;;;;3.97;2.67;;;12.30;99.90;;;;;;4939283;29;20467;-67
2022/05/18 10:45:34;;;;;;;4.23;2.40;;;12.30;99.90;;;;;;4932434;29;20493;-68
2022/05/18 10:48:14;;;;;;;3.90;2.70;;;12.30;99.90;;;;;;4941623;29;20478;-68
2022/05/18 10:50:45;;;;;;;3.00;2.70;;;12.20;99.90;;;;;;4937332;29;20470;-67
2022/05/18 10:53:38;;;;;;;6.03;2.40;;;12.20;99.90;;;;;;4939760;29;20990;-67
2022/05/18 10:56:12;;;;;;;3.90;2.60;;;12.20;99.90;;;;;;4933898;29;20493;-67
2022/05/18 10:58:48;;;;;;;2.90;2.43;;;12.10;99.90;;;;;;4930551;29;20503;-68
2022/05/18 11:01:24;;;;;;;2.70;2.50;;;12.10;99.90;;;;;;4941535;29;20959;-68
2022/05/18 11:04:01;;;;;;;4.50;2.90;;;12.10;99.90;;;;;;4941299;29;20486;-67
2022/05/18 11:06:35;;;;;;;3.50;2.30;;;12.00;99.90;;;;;;4943036;29;20465;-67
2022/05/18 11:09:08;;;;;;;4.03;2.67;;;12.10;99.90;;;;;;4942720;29;20476;-68
2022/05/18 11:11:47;;;;;;;3.87;2.60;;;12.00;99.90;;;;;;4939053;29;20474;-68
2022/05/18 11:14:26;;;;;;;3.93;2.80;;;12.00;99.90;;;;;;4942803;29;20519;-68
2022/05/18 11:17:06;;;;;;;3.03;2.73;;;12.00;99.90;;;;;;4935601;29;20493;-67
2022/05/18 11:19:45;;;;;;;4.80;3.47;;;11.90;99.90;;;;;;4943512;29;20466;-68
2022/05/18 11:22:32;;;;;;;3.60;3.00;;;12.00;99.90;;;;;;4942012;29;20713;-67
2022/05/18 11:25:22;;;;;;;5.67;2.70;;;11.90;99.90;;;;;;4932515;29;20514;-67
2022/05/18 11:28:21;;;;;;;3.50;2.70;;;11.90;99.90;;;;;;4937626;29;20446;-68
2022/05/18 11:31:03;;;;;;;5.30;2.43;;;11.80;99.90;;;;;;4939182;29;20873;-67
2022/05/18 11:33:40;;;;;;;3.53;2.20;;;11.70;99.90;;;;;;4945905;29;20473;-68
2022/05/18 11:36:20;;;;;;;4.63;3.17;;;11.70;99.90;;;;;;4946608;29;20496;-67
2022/05/18 11:39:10;;;;;;;3.17;2.87;;;11.60;99.90;;;;;;4945436;29;20930;-67
2022/05/18 11:42:10;;;;;;;4.73;2.83;;;11.60;99.90;;;;;;4944860;29;21120;-67
2022/05/18 11:44:48;;;;;;;4.90;3.30;;;11.40;99.90;;;;;;4940674;29;20513;-68
2022/05/18 11:47:41;;;;;;;6.87;3.60;;;11.40;99.90;;;;;;4930709;29;20470;-67
2022/05/18 11:50:24;;;;;;;4.43;3.20;;;11.40;99.90;;;;;;4936938;29;21059;-68
2022/05/18 11:53:20;;;;;;;4.47;3.03;;;11.40;99.90;;;;;;4944340;29;20510;-67
2022/05/18 11:56:06;;;;;;;3.20;2.90;;;11.30;99.90;;;;;;4933772;29;20493;-68
2022/05/18 11:58:52;;;;;;;2.90;2.57;;;11.20;99.90;;;;;;4940219;29;20464;-66
2022/05/18 12:01:32;;;;;;;4.70;2.70;;;11.10;99.90;;;;;;4935799;29;20497;-68
2022/05/18 12:04:36;;;;;;;4.70;3.53;;;10.90;99.90;;;;;;4945306;29;20585;-68
2022/05/18 12:07:34;;;;;;;3.43;3.13;;;10.80;99.90;;;;;;4939285;29;20508;-68
2022/05/18 12:10:18;;;;;;;6.37;3.33;;;10.60;99.90;;;;;;4931595;29;20459;-70
2022/05/18 12:12:58;;;;;;;4.83;3.27;;;10.50;99.90;;;;;;4931129;29;20451;-69
2022/05/18 12:15:37;;;;;;;4.33;3.07;;;10.40;99.90;;;;;;4927817;29;20617;-68
2022/05/18 12:18:13;;;;;;;6.20;3.40;;;10.40;99.90;;;;;;4928056;29;20481;-67
2022/05/18 12:20:53;;;;;;;5.37;3.17;;;10.30;99.90;;;;;;4941135;29;20484;-67
2022/05/18 12:23:29;;;;;;;5.28;3.70;;;10.30;99.90;;;;;;4939157;29;20472;-68
2022/05/18 12:26:00;;;;;;;5.20;3.10;;;10.30;99.90;;;;;;4944671;29;20206;-67
2022/05/18 12:28:31;;;;;;;6.78;3.63;;;10.20;99.90;;;;;;4941441;29;20582;-67
2022/05/18 12:31:03;;;;;;;9.63;3.70;;;10.20;99.90;;;;;;4937124;29;20206;-66
2022/05/18 12:33:43;;;;;;;3.72;3.00;;;10.20;99.90;;;;;;4938407;29;20632;-66
2022/05/18 12:36:24;;;;;;;6.30;4.25;;;10.10;99.90;;;;;;4945382;29;20315;-67
2022/05/18 12:38:57;;;;;;;4.93;3.77;;;10.00;99.90;;;;;;4937342;29;20217;-67
2022/05/18 12:41:29;;;;;;;7.97;4.10;;;10.00;99.90;;;;;;4943580;29;20528;-66
2022/05/18 12:44:08;;;;;;;4.27;3.63;;;10.00;99.90;;;;;;4944867;29;20458;-67
2022/05/18 12:46:44;;;;;;;7.95;4.65;;;9.90;99.90;;;;;;4933065;29;20470;-67
2022/05/18 12:49:30;;;;;;;7.70;4.03;;;9.80;99.90;;;;;;4941158;29;20304;-67
2022/05/18 12:52:05;;;;;;;6.30;3.30;;;9.80;99.90;;;;;;4938521;29;20579;-67
2022/05/18 12:54:44;;;;;;;5.35;3.83;;;9.70;99.90;;;;;;4939271;29;20338;-67
2022/05/18 12:57:26;;;;;;;4.35;3.80;;;9.70;99.90;;;;;;4945219;29;20317;-67
2022/05/18 13:00:37;;;;;;;5.22;3.50;;;9.60;99.90;;;;;;4940806;29;20210;-67
2022/05/18 13:03:28;;;;;;;5.20;3.95;;;9.50;99.90;;;;;;4923086;29;20226;-67
2022/05/18 13:06:01;;;;;;;6.18;4.05;;;9.40;99.90;;;;;;4940365;29;20214;-66
2022/05/18 13:09:08;;;;;;;4.63;4.05;;;9.40;99.90;;;;;;4942192;29;20220;-67
2022/05/18 13:11:54;;;;;;;4.15;3.72;;;9.50;99.90;;;;;;4931547;29;20191;-66
2022/05/18 13:14:44;;;;;;;5.97;3.80;;;9.50;99.90;;;;;;4927086;29;20366;-66
2022/05/18 13:17:23;;;;;;;7.00;4.70;;;9.50;99.90;;;;;;4938522;29;20206;-67
2022/05/18 13:20:01;;;;;;;5.53;3.88;;;9.40;99.90;;;;;;4938628;29;20221;-66
2022/05/18 13:22:48;;;;;;;4.07;3.60;;;9.40;99.90;;;;;;4943374;29;20221;-67
2022/05/18 13:25:20;;;;;;;5.97;3.20;;;9.20;99.90;;;;;;4940559;29;20205;-66
2022/05/18 13:27:57;;;;;;;8.30;4.53;;;9.10;99.90;;;;;;4942484;29;20228;-66
2022/05/18 13:30:38;;;;;;;4.40;3.35;;;9.10;99.90;;;;;;4940971;29;20205;-66
2022/05/18 13:33:37;;;;;;;8.80;3.90;;;9.10;99.90;;;;;;4939966;29;20265;-66
2022/05/18 13:36:08;;;;;;;7.75;3.33;;;9.00;99.90;;;;;;4942717;29;20288;-67
2022/05/18 13:38:39;;;;;;;4.82;3.35;;;8.90;99.90;;;;;;4928976;29;20211;-67
2022/05/18 13:41:12;;;;;;;5.50;3.65;;;8.90;99.90;;;;;;4931741;29;20213;-67
2022/05/18 13:43:45;;;;;;;6.35;4.50;;;8.90;99.90;;;;;;4945233;29;20213;-66
2022/05/18 13:46:21;;;;;;;4.32;3.20;;;8.90;99.90;;;;;;4930490;29;20214;-68